Terminal Aerodrome Forecast
Issued by NWS Nashville, TN

Home | Current Version | Previous Version | Text Only | Print | Product List | Glossary On
Versions: 1 2 3 4 5 6 7 8 9 10 11 12 13 14 15 16 17 18 19 20 21 22 23 24 25
000
FTUS44 KOHX 222301 AAC
TAFCSV
TAF AMD
KCSV 222301Z 2223/2318 15008KT P6SM FEW035 BKN180
     FM230300 15010KT P6SM VCSH BKN040
     FM230600 15011G17KT 5SM -SHRA OVC015
     FM231200 19009KT 4SM -SHRA OVC007
     FM231500 23007KT 4SM -SHRA OVC015=

USA.gov is the U.S. government's official web portal to all federal, state and local government web resources and services.